createdAt,value
2019-02-10T00:00:35.394Z,19.17
2019-02-10T00:02:37.098Z,14.80
2019-02-10T00:04:38.837Z,13.00
2019-02-10T00:06:40.573Z,16.43
2019-02-10T00:08:42.507Z,20.25
2019-02-10T00:10:44.697Z,19.63
2019-02-10T00:13:24.961Z,17.00
2019-02-10T00:15:26.865Z,18.87
2019-02-10T00:17:28.577Z,12.17
2019-02-10T00:19:30.302Z,21.10
2019-02-10T00:21:32.021Z,16.47
2019-02-10T00:23:33.852Z,15.07
2019-02-10T00:25:35.562Z,15.40
2019-02-10T00:27:37.265Z,17.20
2019-02-10T00:29:38.979Z,13.03
2019-02-10T00:31:40.733Z,13.33
2019-02-10T00:33:42.546Z,12.00
2019-02-10T00:35:45.113Z,12.18
2019-02-10T00:37:46.865Z,17.07
2019-02-10T00:39:48.575Z,11.30
2019-02-10T00:41:50.290Z,9.73
2019-02-10T00:43:52.004Z,14.80
2019-02-10T00:45:53.835Z,18.57
2019-02-10T00:47:55.548Z,12.82
2019-02-10T00:49:57.263Z,12.40
2019-02-10T00:51:59.108Z,15.73
2019-02-10T00:54:00.813Z,14.80
2019-02-10T00:56:02.537Z,16.30
2019-02-10T00:58:04.452Z,12.60
2019-02-10T01:00:06.289Z,13.18
2019-02-10T01:02:08.005Z,13.28
2019-02-10T01:04:09.887Z,11.08
2019-02-10T01:06:11.592Z,11.60
2019-02-10T01:08:13.325Z,13.62
2019-02-10T01:10:16.153Z,17.30
2019-02-10T01:12:17.941Z,13.20
2019-02-10T01:14:19.653Z,15.13
2019-02-10T01:16:21.368Z,13.65
2019-02-10T01:18:23.089Z,14.10
2019-02-10T01:20:24.798Z,16.27
2019-02-10T01:22:26.509Z,17.30
2019-02-10T01:24:28.394Z,15.25
2019-02-10T01:26:30.104Z,11.03
2019-02-10T01:28:31.829Z,11.05
2019-02-10T01:30:34.038Z,11.33
2019-02-10T01:32:35.752Z,11.97
2019-02-10T01:34:37.689Z,12.15
2019-02-10T01:36:39.424Z,13.93
2019-02-10T01:38:41.263Z,15.40
2019-02-10T01:40:42.985Z,17.90
2019-02-10T01:42:44.733Z,11.05
2019-02-10T01:44:46.449Z,22.02
2019-02-10T01:46:48.165Z,9.33
2019-02-10T01:48:49.889Z,16.35
2019-02-10T01:50:51.600Z,14.45
2019-02-10T01:52:53.309Z,14.93
2019-02-10T01:54:55.036Z,23.67
2019-02-10T01:56:56.753Z,14.60
2019-02-10T01:58:58.460Z,21.20
2019-02-10T02:01:00.473Z,18.52
2019-02-10T02:03:02.272Z,16.95
2019-02-10T02:05:06.001Z,19.50
2019-02-10T02:07:08.574Z,17.75
2019-02-10T02:09:12.549Z,11.90
2019-02-10T02:11:14.261Z,17.35
2019-02-10T02:13:15.974Z,20.27
2019-02-10T02:15:17.809Z,15.18
2019-02-10T02:17:19.529Z,18.52
2019-02-10T02:19:21.393Z,14.65
2019-02-10T02:21:23.103Z,20.15
2019-02-10T02:23:24.873Z,9.88
2019-02-10T02:25:26.740Z,17.60
2019-02-10T02:27:28.561Z,17.75
2019-02-10T02:29:30.284Z,13.75
2019-02-10T02:31:32.017Z,17.40
2019-02-10T02:33:33.751Z,14.13
2019-02-10T02:35:35.455Z,12.73
2019-02-10T02:37:37.375Z,18.45
2019-02-10T02:39:39.132Z,14.23
2019-02-10T02:41:40.966Z,14.95
2019-02-10T02:43:42.681Z,20.00
2019-02-10T02:45:44.401Z,14.45
2019-02-10T02:47:46.221Z,15.15
2019-02-10T02:49:47.934Z,12.63
2019-02-10T02:51:49.827Z,14.25
2019-02-10T02:53:51.545Z,14.73
2019-02-10T02:55:53.244Z,15.55
2019-02-10T02:57:54.949Z,12.13
2019-02-10T02:59:56.689Z,18.95
2019-02-10T03:01:58.404Z,16.80
2019-02-10T03:04:00.118Z,21.10
2019-02-10T03:06:02.021Z,12.90
2019-02-10T03:08:03.838Z,9.40
2019-02-10T03:10:05.840Z,18.17
2019-02-10T03:12:07.582Z,16.85
2019-02-10T03:14:09.293Z,14.00
2019-02-10T03:16:11.026Z,15.80
2019-02-10T03:18:12.742Z,11.60
2019-02-10T03:20:14.553Z,11.75
2019-02-10T03:22:16.550Z,11.57
2019-02-10T03:24:18.259Z,13.30
2019-02-10T03:26:19.962Z,12.40
2019-02-10T03:28:21.998Z,16.12
2019-02-10T03:30:23.715Z,13.05
2019-02-10T03:32:25.526Z,13.45
2019-02-10T03:34:27.422Z,11.45
2019-02-10T03:36:29.239Z,16.97
2019-02-10T03:38:30.966Z,10.65
2019-02-10T03:40:32.812Z,9.40
2019-02-10T03:42:34.514Z,18.17
2019-02-10T03:44:36.245Z,16.10
2019-02-10T03:46:37.974Z,12.10
2019-02-10T03:48:40.190Z,20.02
2019-02-10T03:50:41.889Z,13.78
2019-02-10T03:52:43.650Z,12.13
2019-02-10T03:54:45.474Z,15.25
2019-02-10T03:56:47.181Z,15.40
2019-02-10T03:58:49.245Z,15.98
2019-02-10T04:00:51.065Z,15.35
2019-02-10T04:02:53.049Z,17.42
2019-02-10T04:04:54.785Z,9.43
2019-02-10T04:06:56.508Z,15.08
2019-02-10T04:08:58.214Z,13.93
2019-02-10T04:11:00.081Z,13.05
2019-02-10T04:13:01.800Z,15.28
2019-02-10T04:15:04.281Z,12.35
2019-02-10T04:17:06.032Z,16.30
2019-02-10T04:19:10.517Z,12.23
2019-02-10T04:21:12.209Z,12.95
2019-02-10T04:23:13.940Z,10.80
2019-02-10T04:25:15.645Z,13.00
2019-02-10T04:27:17.354Z,15.30
2019-02-10T04:29:19.189Z,15.05
2019-02-10T04:31:20.908Z,15.30
2019-02-10T04:33:22.740Z,14.10
2019-02-10T04:35:24.561Z,13.67
2019-02-10T04:37:26.300Z,13.32
2019-02-10T04:39:28.019Z,16.50
2019-02-10T04:41:29.740Z,10.48
2019-02-10T04:43:31.511Z,11.85
2019-02-10T04:45:33.247Z,16.80
2019-02-10T04:47:35.010Z,12.60
2019-02-10T04:49:36.730Z,14.30
2019-02-10T04:51:38.433Z,10.80
2019-02-10T04:53:40.169Z,20.12
2019-02-10T04:55:41.902Z,14.93
2019-02-10T04:57:43.619Z,17.35
2019-02-10T04:59:45.351Z,13.50
2019-02-10T05:01:47.081Z,8.75
2019-02-10T05:03:48.788Z,7.70
2019-02-10T05:05:50.641Z,7.40
2019-02-10T05:07:54.423Z,11.88
2019-02-10T05:09:56.006Z,11.18
2019-02-10T05:11:57.741Z,12.00
2019-02-10T05:13:59.444Z,13.90
2019-02-10T05:16:01.160Z,16.70
2019-02-10T05:18:02.881Z,12.05
2019-02-10T05:20:04.862Z,14.93
2019-02-10T05:22:06.589Z,15.50
2019-02-10T05:24:08.310Z,11.63
2019-02-10T05:26:10.160Z,12.07
2019-02-10T05:28:11.873Z,17.48
2019-02-10T05:30:13.588Z,9.23
2019-02-10T05:32:15.316Z,14.07
2019-02-10T05:34:17.031Z,10.50
2019-02-10T05:36:18.745Z,8.38
2019-02-10T05:38:20.619Z,18.35
2019-02-10T05:40:22.309Z,15.68
2019-02-10T05:42:24.042Z,19.37
2019-02-10T05:44:25.773Z,15.98
2019-02-10T05:46:27.525Z,11.05
2019-02-10T05:48:29.238Z,9.70
2019-02-10T05:50:30.945Z,13.48
2019-02-10T05:52:32.666Z,8.13
2019-02-10T05:54:34.603Z,15.30
2019-02-10T05:56:36.443Z,17.52
2019-02-10T05:58:38.150Z,8.80
2019-02-10T06:00:39.875Z,9.83
2019-02-10T06:02:41.697Z,15.47
2019-02-10T06:04:43.399Z,10.18
2019-02-10T06:06:45.136Z,11.10
2019-02-10T06:08:46.923Z,10.75
2019-02-10T06:10:48.613Z,10.00
2019-02-10T06:12:50.333Z,11.00
2019-02-10T06:14:52.105Z,12.70
2019-02-10T06:16:53.808Z,9.03
2019-02-10T06:18:55.541Z,10.83
2019-02-10T06:20:57.365Z,8.13
2019-02-10T06:23:01.884Z,9.47
2019-02-10T06:25:04.191Z,12.10
2019-02-10T06:27:05.902Z,8.55
2019-02-10T06:29:07.608Z,9.03
2019-02-10T06:31:09.325Z,8.88
2019-02-10T06:33:11.146Z,10.32
2019-02-10T06:35:13.130Z,11.45
2019-02-10T06:37:14.841Z,14.60
2019-02-10T06:39:16.592Z,16.48
2019-02-10T06:41:18.312Z,13.20
2019-02-10T06:43:20.059Z,9.05
2019-02-10T06:45:21.810Z,17.82
2019-02-10T06:47:23.624Z,9.08
2019-02-10T06:49:25.361Z,7.92
2019-02-10T06:51:27.256Z,12.85
2019-02-10T06:53:28.977Z,20.92
2019-02-10T06:55:30.704Z,9.38
2019-02-10T06:57:32.698Z,7.83
2019-02-10T06:59:45.157Z,13.43
2019-02-10T07:01:54.508Z,9.33
2019-02-10T07:04:19.537Z,12.53
2019-02-10T07:06:21.248Z,14.93
2019-02-10T07:08:30.193Z,12.78
2019-02-10T07:10:26.593Z,8.28
2019-02-10T07:12:47.818Z,12.35
2019-02-10T07:14:49.537Z,12.20
2019-02-10T07:17:15.024Z,13.13
2019-02-10T07:20:13.480Z,14.18
2019-02-10T07:23:24.702Z,10.28
2019-02-10T07:25:49.405Z,13.35
2019-02-10T07:28:17.733Z,12.95
2019-02-10T07:30:43.217Z,17.98
2019-02-10T07:32:48.041Z,12.65
2019-02-10T07:35:17.284Z,12.25
2019-02-10T07:37:37.661Z,10.30
2019-02-10T07:40:10.033Z,7.00
2019-02-10T07:42:45.312Z,12.68
2019-02-10T07:45:14.431Z,11.20
2019-02-10T07:47:36.044Z,12.40
2019-02-10T07:49:46.846Z,12.73
2019-02-10T07:52:24.700Z,12.30
2019-02-10T07:54:42.251Z,9.53
2019-02-10T07:57:12.293Z,10.23
2019-02-10T07:59:55.201Z,8.45
2019-02-10T08:02:32.980Z,15.78
2019-02-10T08:05:21.490Z,12.00
2019-02-10T08:07:57.513Z,13.05
2019-02-10T08:10:19.559Z,12.43
2019-02-10T08:13:02.512Z,9.98
2019-02-10T08:15:11.381Z,14.98
2019-02-10T08:17:44.467Z,13.85
2019-02-10T08:20:06.021Z,5.33
2019-02-10T08:22:40.364Z,17.90
2019-02-10T08:25:24.184Z,12.78
2019-02-10T08:27:53.569Z,13.28
2019-02-10T08:30:42.929Z,9.00
2019-02-10T08:33:09.468Z,11.10
2019-02-10T08:35:33.816Z,10.78
2019-02-10T08:38:11.500Z,9.78
2019-02-10T08:40:54.689Z,21.00
2019-02-10T08:43:24.178Z,15.28
2019-02-10T08:45:50.037Z,9.08
2019-02-10T08:48:23.928Z,14.00
2019-02-10T08:51:01.228Z,14.43
2019-02-10T08:53:10.142Z,10.15
2019-02-10T08:55:11.856Z,12.18
2019-02-10T08:57:13.564Z,8.95
2019-02-10T08:59:15.269Z,16.12
2019-02-10T09:01:16.967Z,11.00
2019-02-10T09:03:19.829Z,14.25
2019-02-10T09:05:21.832Z,8.13
2019-02-10T09:07:23.555Z,8.73
2019-02-10T09:09:25.267Z,15.03
2019-02-10T09:11:27.080Z,6.85
2019-02-10T09:13:28.790Z,8.25
2019-02-10T09:15:30.510Z,7.37
2019-02-10T09:17:32.241Z,14.93
2019-02-10T09:19:33.936Z,9.93
2019-02-10T09:21:35.645Z,11.80
2019-02-10T09:23:37.361Z,10.58
2019-02-10T09:25:39.066Z,11.10
2019-02-10T09:27:40.788Z,10.70
2019-02-10T09:29:42.579Z,8.03
2019-02-10T09:31:44.302Z,12.10
2019-02-10T09:33:46.021Z,10.50
2019-02-10T09:35:47.860Z,10.23
2019-02-10T09:37:49.649Z,10.98
2019-02-10T09:39:51.379Z,6.67
2019-02-10T09:41:53.260Z,6.25
2019-02-10T09:43:54.965Z,5.95
2019-02-10T09:45:56.696Z,9.10
2019-02-10T09:47:58.407Z,8.55
2019-02-10T09:50:00.269Z,9.98
2019-02-10T09:52:02.048Z,10.05
2019-02-10T09:54:03.750Z,6.05
2019-02-10T09:56:05.452Z,7.85
2019-02-10T09:58:07.164Z,5.97
2019-02-10T10:00:11.260Z,6.90
2019-02-10T10:02:12.970Z,12.15
2019-02-10T10:04:14.675Z,12.93
2019-02-10T10:06:16.560Z,10.50
2019-02-10T10:08:18.276Z,9.43
2019-02-10T10:10:19.985Z,9.93
2019-02-10T10:12:21.720Z,8.28
2019-02-10T10:14:30.774Z,8.08
2019-02-10T10:16:32.916Z,9.95
2019-02-10T10:18:35.037Z,8.55
2019-02-10T10:20:36.745Z,10.35
2019-02-10T10:22:38.490Z,6.58
2019-02-10T10:24:40.192Z,8.85
2019-02-10T10:26:42.062Z,7.58
2019-02-10T10:28:43.846Z,9.05
2019-02-10T10:30:45.644Z,9.78
2019-02-10T10:32:47.670Z,8.98
2019-02-10T10:34:49.425Z,8.35
2019-02-10T10:36:51.149Z,10.48
2019-02-10T10:38:52.962Z,9.03
2019-02-10T10:40:54.829Z,10.80
2019-02-10T10:42:56.544Z,6.90
2019-02-10T10:44:58.272Z,9.75
2019-02-10T10:46:59.981Z,6.62
2019-02-10T10:49:01.709Z,10.23
2019-02-10T10:51:03.431Z,9.98
2019-02-10T10:53:05.205Z,8.23
2019-02-10T10:55:07.438Z,6.03
2019-02-10T10:57:09.172Z,8.68
2019-02-10T10:59:10.906Z,8.85
2019-02-10T11:01:12.673Z,9.38
2019-02-10T11:03:14.680Z,8.23
2019-02-10T11:05:21.447Z,8.55
2019-02-10T11:07:32.494Z,9.05
2019-02-10T11:09:35.807Z,7.90
2019-02-10T11:11:39.255Z,8.90
2019-02-10T11:13:42.096Z,7.42
2019-02-10T11:15:43.867Z,6.95
2019-02-10T11:17:46.902Z,8.83
2019-02-10T11:25:55.673Z,7.62
2019-02-10T11:27:57.680Z,7.20
2019-02-10T11:29:59.497Z,9.68
2019-02-10T11:32:01.305Z,8.93
2019-02-10T11:34:03.216Z,8.83
2019-02-10T11:36:05.206Z,8.53
2019-02-10T11:38:07.266Z,7.60
2019-02-10T11:40:09.396Z,8.78
2019-02-10T11:42:11.494Z,7.85
2019-02-10T11:44:13.498Z,16.48
2019-02-10T11:46:15.430Z,8.60
2019-02-10T11:48:17.426Z,9.05
2019-02-10T11:50:19.328Z,9.43
2019-02-10T11:52:21.337Z,9.63
2019-02-10T11:54:23.480Z,7.70
2019-02-10T11:56:25.316Z,9.35
2019-02-10T11:58:27.560Z,6.17
2019-02-10T12:00:29.522Z,7.00
2019-02-10T12:02:37.886Z,7.95
2019-02-10T12:04:35.291Z,7.58
2019-02-10T12:06:37.062Z,7.42
2019-02-10T12:08:38.792Z,7.67
2019-02-10T12:10:40.717Z,7.62
2019-02-10T12:12:42.621Z,5.62
2019-02-10T12:14:44.341Z,7.80
2019-02-10T12:16:46.265Z,8.25
2019-02-10T12:18:47.985Z,6.40
2019-02-10T12:20:49.701Z,6.47
2019-02-10T12:22:51.524Z,7.58
2019-02-10T12:24:53.363Z,9.93
2019-02-10T12:26:55.086Z,8.53
2019-02-10T12:28:56.805Z,5.40
2019-02-10T12:30:58.541Z,9.78
2019-02-10T12:33:00.278Z,8.53
2019-02-10T12:35:02.190Z,9.40
2019-02-10T12:37:04.029Z,9.03
2019-02-10T12:39:06.749Z,6.45
2019-02-10T12:41:08.786Z,6.95
2019-02-10T12:43:10.512Z,8.65
2019-02-10T12:45:12.506Z,6.22
2019-02-10T12:47:14.440Z,7.83
2019-02-10T12:49:16.160Z,9.03
2019-02-10T12:51:17.951Z,7.22
2019-02-10T12:53:19.680Z,6.65
2019-02-10T12:55:21.509Z,7.58
2019-02-10T12:57:23.237Z,8.65
2019-02-10T12:59:24.985Z,7.70
2019-02-10T13:01:26.998Z,11.03
2019-02-10T13:03:28.809Z,8.10
2019-02-10T13:05:30.533Z,7.90
2019-02-10T13:07:32.454Z,8.45
2019-02-10T13:09:34.444Z,8.80
2019-02-10T13:11:36.287Z,7.03
2019-02-10T13:13:38.128Z,9.90
2019-02-10T13:15:40.185Z,9.50
2019-02-10T13:17:41.885Z,8.28
2019-02-10T13:19:43.745Z,8.97
2019-02-10T13:21:45.682Z,8.90
2019-02-10T13:23:47.513Z,7.70
2019-02-10T13:25:50.577Z,6.42
2019-02-10T13:27:52.454Z,6.73
2019-02-10T13:29:54.305Z,7.15
2019-02-10T13:31:56.078Z,7.25
2019-02-10T13:33:57.913Z,9.50
2019-02-10T13:35:59.677Z,8.00
2019-02-10T13:38:01.505Z,8.13
2019-02-10T13:40:04.968Z,8.35
2019-02-10T13:42:06.677Z,7.40
2019-02-10T13:44:08.384Z,8.58
2019-02-10T13:46:10.089Z,9.80
2019-02-10T13:48:11.794Z,11.00
2019-02-10T13:50:14.204Z,8.18
2019-02-10T13:52:15.909Z,8.93
2019-02-10T13:54:17.641Z,10.23
2019-02-10T13:56:19.372Z,11.08
2019-02-10T13:58:21.120Z,9.40
2019-02-10T14:00:22.978Z,8.93
2019-02-10T14:02:24.716Z,10.18
2019-02-10T14:04:26.419Z,12.53
2019-02-10T14:06:28.132Z,11.30
2019-02-10T14:08:29.885Z,12.13
2019-02-10T14:10:31.600Z,12.13
2019-02-10T14:12:33.309Z,13.18
2019-02-10T14:14:35.063Z,13.48
2019-02-10T14:16:36.772Z,13.55
2019-02-10T14:18:38.522Z,16.10
2019-02-10T14:20:40.233Z,14.17
2019-02-10T14:22:42.062Z,16.80
2019-02-10T14:24:43.925Z,15.40
2019-02-10T14:26:45.646Z,15.48
2019-02-10T14:28:47.365Z,18.23
2019-02-10T14:30:49.089Z,17.17
2019-02-10T14:32:50.909Z,15.77
2019-02-10T14:34:52.633Z,16.93
2019-02-10T14:36:54.468Z,14.97
2019-02-10T14:38:56.310Z,17.30
2019-02-10T14:40:58.012Z,13.40
2019-02-10T14:42:59.780Z,11.83
2019-02-10T14:45:01.709Z,16.20
2019-02-10T14:47:03.417Z,12.60
2019-02-10T14:49:05.129Z,12.73
2019-02-10T14:51:06.869Z,11.90
2019-02-10T14:53:08.585Z,10.83
2019-02-10T14:55:10.396Z,13.20
2019-02-10T14:57:12.164Z,12.03
2019-02-10T14:59:13.877Z,9.97
2019-02-10T15:01:15.581Z,10.20
2019-02-10T15:03:17.321Z,9.70
2019-02-10T15:05:19.020Z,10.77
2019-02-10T15:07:25.164Z,8.77
2019-02-10T15:09:24.370Z,9.37
2019-02-10T15:11:26.082Z,8.53
2019-02-10T15:13:27.954Z,8.50
2019-02-10T15:15:29.780Z,7.37
2019-02-10T15:17:31.504Z,9.70
2019-02-10T15:19:33.209Z,7.93
2019-02-10T15:21:34.931Z,6.93
2019-02-10T15:23:36.639Z,7.13
2019-02-10T15:25:39.173Z,8.40
2019-02-10T15:27:40.996Z,7.63
2019-02-10T15:29:42.889Z,6.33
2019-02-10T15:31:44.622Z,6.90
2019-02-10T15:33:46.359Z,7.07
2019-02-10T15:35:48.057Z,6.60
2019-02-10T15:37:49.778Z,6.03
2019-02-10T15:39:51.521Z,6.43
2019-02-10T15:41:53.254Z,8.00
2019-02-10T15:43:54.952Z,8.20
2019-02-10T15:45:56.765Z,7.70
2019-02-10T15:47:58.477Z,8.40
2019-02-10T15:50:00.218Z,6.90
2019-02-10T15:52:01.946Z,7.90
2019-02-10T15:54:03.859Z,7.50
2019-02-10T15:56:05.587Z,10.53
2019-02-10T15:58:07.316Z,10.23
2019-02-10T16:00:12.157Z,7.90
2019-02-10T16:02:13.909Z,9.33
2019-02-10T16:04:15.644Z,10.03
2019-02-10T16:06:17.378Z,9.07
2019-02-10T16:08:19.100Z,11.97
2019-02-10T16:10:21.008Z,8.63
2019-02-10T16:12:22.728Z,9.07
2019-02-10T16:14:24.534Z,10.20
2019-02-10T16:16:26.264Z,9.70
2019-02-10T16:18:27.970Z,10.40
2019-02-10T16:20:29.862Z,9.20
2019-02-10T16:22:31.601Z,11.10
2019-02-10T16:24:34.927Z,13.23
2019-02-10T16:26:36.621Z,10.17
2019-02-10T16:28:38.612Z,10.80
2019-02-10T16:30:40.317Z,11.03
2019-02-10T16:32:49.303Z,9.20
2019-02-10T16:34:45.768Z,10.50
2019-02-10T16:36:47.484Z,11.80
2019-02-10T16:38:49.193Z,11.60
2019-02-10T16:40:50.898Z,14.50
2019-02-10T16:42:52.626Z,13.77
2019-02-10T16:44:54.293Z,13.93
2019-02-10T16:46:56.008Z,17.63
2019-02-10T16:48:57.720Z,14.83
2019-02-10T16:50:59.432Z,14.10
2019-02-10T16:53:01.245Z,11.37
2019-02-10T16:55:03.465Z,12.97
2019-02-10T16:57:05.178Z,13.57
2019-02-10T16:59:06.869Z,13.07
2019-02-10T17:01:09.010Z,11.60
2019-02-10T17:03:10.752Z,11.70
2019-02-10T17:05:12.576Z,12.50
2019-02-10T17:07:14.312Z,12.00
2019-02-10T17:09:16.022Z,12.37
2019-02-10T17:11:17.817Z,10.77
2019-02-10T17:13:19.536Z,11.53
2019-02-10T17:15:21.475Z,12.07
2019-02-10T17:17:23.164Z,9.17
2019-02-10T17:19:24.969Z,9.13
2019-02-10T17:21:26.679Z,8.70
2019-02-10T17:23:28.385Z,10.10
2019-02-10T17:25:30.209Z,11.20
2019-02-10T17:27:32.044Z,9.75
2019-02-10T17:29:33.741Z,10.43
2019-02-10T17:31:35.456Z,11.50
2019-02-10T17:33:37.193Z,10.60
2019-02-10T17:35:38.943Z,11.05
2019-02-10T17:37:41.544Z,10.60
2019-02-10T17:39:43.255Z,11.48
2019-02-10T17:41:46.614Z,11.17
2019-02-10T17:43:48.330Z,10.40
2019-02-10T17:45:50.033Z,10.13
2019-02-10T17:47:51.849Z,11.78
2019-02-10T17:49:53.562Z,11.57
2019-02-10T17:51:55.286Z,11.40
2019-02-10T17:53:57.172Z,10.75
2019-02-10T17:55:58.881Z,10.75
2019-02-10T17:58:00.585Z,11.93
2019-02-10T18:00:02.693Z,11.85
2019-02-10T18:02:04.559Z,12.98
2019-02-10T18:04:06.325Z,11.70
2019-02-10T18:06:08.169Z,12.90
2019-02-10T18:08:10.004Z,14.73
2019-02-10T18:10:11.892Z,13.30
2019-02-10T18:12:13.674Z,9.63
2019-02-10T18:14:40.805Z,8.20
2019-02-10T18:17:00.710Z,10.45
2019-02-10T18:19:18.997Z,9.28
2019-02-10T18:21:32.272Z,9.25
2019-02-10T18:23:44.685Z,9.83
2019-02-10T18:25:53.184Z,7.05
2019-02-10T18:28:26.279Z,7.50
2019-02-10T18:30:47.002Z,10.20
2019-02-10T18:33:02.306Z,8.80
2019-02-10T18:35:12.597Z,7.30
2019-02-10T18:37:37.193Z,6.95
2019-02-10T18:40:01.469Z,8.40
2019-02-10T18:42:30.904Z,8.95
2019-02-10T18:44:50.897Z,8.93
2019-02-10T18:47:09.917Z,8.05
2019-02-10T18:49:25.075Z,6.40
2019-02-10T18:51:45.472Z,7.12
2019-02-10T18:54:01.061Z,7.10
2019-02-10T18:56:34.421Z,8.43
2019-02-10T18:58:55.177Z,8.80
2019-02-10T19:01:16.563Z,8.50
2019-02-10T19:03:29.580Z,9.75
2019-02-10T19:05:40.871Z,8.50
2019-02-10T19:07:54.177Z,9.83
2019-02-10T19:10:27.650Z,8.78
2019-02-10T19:12:38.957Z,8.83
2019-02-10T19:14:58.767Z,9.73
2019-02-10T19:17:13.898Z,9.73
2019-02-10T19:19:34.610Z,8.85
2019-02-10T19:21:45.986Z,7.53
2019-02-10T19:24:22.738Z,8.68
2019-02-10T19:26:53.952Z,8.20
2019-02-10T19:29:14.085Z,7.97
2019-02-10T19:31:44.113Z,8.13
2019-02-10T19:34:08.220Z,9.25
2019-02-10T19:36:38.476Z,6.97
2019-02-10T19:38:48.860Z,9.95
2019-02-10T19:41:10.265Z,10.55
2019-02-10T19:43:22.666Z,6.72
2019-02-10T19:45:44.053Z,6.92
2019-02-10T19:48:05.456Z,6.87
2019-02-10T19:50:26.989Z,7.05
2019-02-10T19:52:41.160Z,6.35
2019-02-10T19:54:48.472Z,5.47
2019-02-10T19:57:01.358Z,7.05
2019-02-10T19:59:23.273Z,5.03
2019-02-10T20:01:41.230Z,4.22
2019-02-10T20:03:53.418Z,4.00
2019-02-10T20:06:11.157Z,3.92
2019-02-10T20:08:23.893Z,3.45
2019-02-10T20:10:44.189Z,2.60
2019-02-10T20:13:20.433Z,3.17
2019-02-10T20:15:39.617Z,3.80
2019-02-10T20:17:49.501Z,3.00
2019-02-10T20:20:06.834Z,3.65
2019-02-10T20:22:19.757Z,3.67
2019-02-10T20:24:33.219Z,4.72
2019-02-10T20:27:00.441Z,3.30
2019-02-10T20:29:10.889Z,6.00
2019-02-10T20:31:22.357Z,4.47
2019-02-10T20:33:42.501Z,3.35
2019-02-10T20:35:54.666Z,3.15
2019-02-10T20:38:18.589Z,3.40
2019-02-10T20:40:37.576Z,2.92
2019-02-10T20:42:50.705Z,2.85
2019-02-10T20:45:04.034Z,2.75
2019-02-10T20:47:24.131Z,2.50
2019-02-10T20:49:44.322Z,2.70
2019-02-10T20:51:51.573Z,2.67
2019-02-10T20:54:01.729Z,2.35
2019-02-10T20:56:11.705Z,2.92
2019-02-10T20:58:31.795Z,2.77
2019-02-10T21:00:51.822Z,3.02
2019-02-10T21:03:06.555Z,2.70
2019-02-10T21:05:18.229Z,2.40
2019-02-10T21:07:32.442Z,4.20
2019-02-10T21:09:50.252Z,3.12
2019-02-10T21:12:20.152Z,2.70
2019-02-10T21:14:50.688Z,2.90
2019-02-10T21:17:10.882Z,2.40
2019-02-10T21:19:34.996Z,2.45
2019-02-10T21:21:46.030Z,2.85
2019-02-10T21:24:12.565Z,3.50
2019-02-10T21:26:32.843Z,2.85
2019-02-10T21:28:40.251Z,3.52
2019-02-10T21:31:10.588Z,3.90
2019-02-10T21:33:19.190Z,3.80
2019-02-10T21:35:36.328Z,3.40
2019-02-10T21:38:00.793Z,4.30
2019-02-10T21:40:11.350Z,3.77
2019-02-10T21:42:35.593Z,4.22
2019-02-10T21:44:44.397Z,5.03
2019-02-10T21:46:57.159Z,4.90
2019-02-10T21:49:04.966Z,4.72
2019-02-10T21:51:06.693Z,3.95
2019-02-10T21:53:08.401Z,4.53
2019-02-10T21:55:10.702Z,4.55
2019-02-10T21:57:12.713Z,4.58
2019-02-10T21:59:14.619Z,5.37
2019-02-10T22:01:16.345Z,5.83
2019-02-10T22:03:18.092Z,5.80
2019-02-10T22:05:19.845Z,4.95
2019-02-10T22:07:21.642Z,5.25
2019-02-10T22:09:23.497Z,5.03
2019-02-10T22:11:25.264Z,5.72
2019-02-10T22:13:27.026Z,7.35
2019-02-10T22:15:28.746Z,5.05
2019-02-10T22:17:30.473Z,4.97
2019-02-10T22:19:32.216Z,5.60
2019-02-10T22:21:33.972Z,7.03
2019-02-10T22:23:35.721Z,6.42
2019-02-10T22:25:37.427Z,6.35
2019-02-10T22:27:39.138Z,5.03
2019-02-10T22:29:40.880Z,7.17
2019-02-10T22:31:42.625Z,5.75
2019-02-10T22:33:51.391Z,6.47
2019-02-10T22:35:47.946Z,6.72
2019-02-10T22:37:49.733Z,9.25
2019-02-10T22:39:51.448Z,8.10
2019-02-10T22:41:53.167Z,8.75
2019-02-10T22:43:54.873Z,9.65
2019-02-10T22:45:56.777Z,7.05
2019-02-10T22:47:58.693Z,12.37
2019-02-10T22:50:00.493Z,9.30
2019-02-10T22:52:02.222Z,14.90
2019-02-10T22:54:03.929Z,15.15
2019-02-10T22:56:05.629Z,13.58
2019-02-10T22:58:07.510Z,16.62
2019-02-10T23:00:27.253Z,17.75
2019-02-10T23:02:29.078Z,12.58
2019-02-10T23:04:30.885Z,18.57
2019-02-10T23:06:32.704Z,19.98
2019-02-10T23:08:34.412Z,20.62
2019-02-10T23:10:36.128Z,19.55
2019-02-10T23:12:38.032Z,24.82
2019-02-10T23:14:39.772Z,22.45
2019-02-10T23:16:41.479Z,22.55
2019-02-10T23:18:43.188Z,22.70
2019-02-10T23:20:44.954Z,21.12
2019-02-10T23:22:46.695Z,18.87
2019-02-10T23:24:48.412Z,20.50
2019-02-10T23:26:50.142Z,18.27
2019-02-10T23:28:51.852Z,18.23
2019-02-10T23:30:53.565Z,20.23
2019-02-10T23:32:55.292Z,12.65
2019-02-10T23:34:57.138Z,14.68
2019-02-10T23:36:58.983Z,18.15
2019-02-10T23:39:00.729Z,16.57
2019-02-10T23:41:02.766Z,18.60
2019-02-10T23:43:04.603Z,17.20
2019-02-10T23:45:06.536Z,13.55
2019-02-10T23:47:08.381Z,25.50
2019-02-10T23:49:10.093Z,18.77
2019-02-10T23:51:11.786Z,23.52
2019-02-10T23:53:13.513Z,14.98
2019-02-10T23:55:15.314Z,12.95
2019-02-10T23:57:17.026Z,16.35
2019-02-10T23:59:18.909Z,15.80
